AirNav   ATP
 
 1522 users online  

AL93 Big Sky Airport
Huntsville, Alabama, USA

GOING TO HUNTSVILLE?


FAA INFORMATION EFFECTIVE 20 JULY 2017

Location

FAA Identifier: AL93
Lat/Long: 34-53-08.3160N / 086-42-35.9920W
34-53.138600N / 086-42.599867W
34.8856433 / -86.7099978
(estimated)
Elevation: 830 ft. / 253 m (estimated)
Variation: 01W (1990)
From city: 12 miles NW of HUNTSVILLE, AL
Time zone: UTC -5 (UTC -6 during Standard Time)
Zip code: 35773

Airport Operations

Airport use: Private use. Permission required prior to landing
Activation date: 02/1992
Control tower: no
ARTCC: MEMPHIS CENTER
FSS: ANNISTON FLIGHT SERVICE STATION
Attendance: IREG
Wind indicator: yes
Segmented circle: no

Airport Communications

WX AWOS-3 at MDQ (8 nm E): 120.000 (256-829-1242)
WX AWOS-3 at FYM (13 nm NE): 135.275 (931-433-5916)
WX ASOS at HSV (15 nm S): PHONE 256-772-8074
WX ASOS at DCU (18 nm SW): 118.375 (256-350-4270)

Nearby radio navigation aids

VOR radial/distance  VOR name  Freq  Var
RQZr323/6.5ROCKET VORTAC112.2002E
DCUr039/18.2DECATUR VOR/DME112.8001W
UXMr220/(37.4)TULLAHOMA REGIONAL VOR109.6503W
MSLr073/40.0MUSCLE SHOALS VORTAC116.5001E

 
NDB name  Hdg/Dist  Freq  Var  ID
CAPSHAW028/7.535001WCWH -.-. .-- ....
REDSTONE358/11.328704WHUA .... ..- .-
BOILING FORK244/36.126303WBGF -... --. ..-.

Airport Services

Runway Information

Runway 18/36

Dimensions: 2450 x 80 ft. / 747 x 24 m
Surface: turf, in good condition
RUNWAY 18  RUNWAY 36
Traffic pattern: leftright
Displaced threshold: no400 ft.
RY 36 DSPLCD THLD MKD WITH CONES.
Obstructions: none60 ft. trees, 200 ft. from runway

Airport Ownership and Management from official FAA records

Ownership: Privately-owned
Owner: CHRISTOPHER A BARBER
437 WILL RABY RD
TONEY, AL 35773
Phone 256-842-9416
Manager: CHRISTOPHER A BARBER
437 WILL RABY RD
TONEY, AL 35773
Phone 256-842-9416

Airport Operational Statistics

Aircraft based on the field: 3
Single engine airplanes: 2
Ultralights: 1
    

Instrument Procedures

There are no published instrument procedures at AL93.

Some nearby airports with instrument procedures:

KMDQ - Huntsville Executive Airport / Tom Sharp Jr Field (8 nm E)
KHUA - Redstone Army Airfield (12 nm S)
KFYM - Fayetteville Municipal Airport (13 nm NE)
KHSV - Huntsville International Airport-Carl T Jones Field (15 nm S)
KDCU - Pryor Field Regional Airport (18 nm SW)
 
Loc | Ops | Rwys | IFR | FBO | Links
Com | Nav | Svcs | Stats | Notes


 
Area around AL93 (Big Sky Airport)
 
Road maps at: MapQuest Bing Google
 
Aerial photo
No photo
 
Sectional chart

 
Airport distance calculator
Flying to Big Sky Airport? Find the distance to fly.

From to AL93

Sunrise and sunset
Times for 25-Jul-2017
 Local
(UTC-5)
 Zulu
(UTC)
Morning civil twilight05:2410:24
Sunrise05:5210:52
Sunset19:5400:54
Evening civil twilight20:2301:23

Current date and time
Zulu (UTC)  25-Jul-2017 21:08:42
Local (UTC-5)  25-Jul-2017 16:08:42
 
METAR
KMDQ 
8nm E 
252055Z AUTO 00000KT 10SM SCT100 32/20 A3007 RMK AO2 LTG DSNT E
KHUA 
12nm S 
252058Z AUTO 22005KT 10SM CLR 33/23 A3005 RMK AO2 SLP169 T03270234
KFYM 
13nm NE 
252050Z AUTO VRB04KT 10SM BKN042 BKN049 BKN100 32/23 A3008 RMK A01
KHSV 
15nm S 
252053Z 21005KT 10SM FEW040 SCT060 SCT200 34/23 A3006 RMK AO2 SLP170 TCU DSNT NW T03390233 58015 $
KDCU 
18nm SW 
252053Z AUTO 00000KT 10SM CLR 34/23 A3006 RMK AO2 SLP173 T03390233 58015
TAF
KHSV 
15nm S 
251120Z 2512/2612 VRB03KT 1SM BR SCT002 TEMPO 2512/2513 1/2SM FG BKN001 FM251400 VRB04KT P6SM SCT030 FM252100 30005KT P6SM BKN050 BKN250 FM260200 VRB02KT P6SM FEW150
NOTAMs
Click for the latest NOTAMs
NOTAMs are issued by the DoD/FAA and will open in a separate window not controlled by AirNav.

 

 
 

Would you like to see your business listed on this page?

 If your business provides an interesting product or service to pilots, flight crews, aircraft, or users of the Big Sky Airport, you should consider listing it here.  To start the listing process, click on the button below
 
Add a business
 

Other Pages about Big Sky Airport

Update a link
 
Copyright © AirNav, LLC. All rights reserved. Privacy Policy  Contact